Enjoy — WDI3111 — position and weather

sailwx.info

Track history (hours):
 
Tides and Currents Weather Stations Pressure Air Temp Water Temp Dewpoint Dewpoint Depression Visibility Wind Speed Wind Dir Waves Ship Positions

Enjoy

Owner: Preuss, Don, Annapolis, MD. More information available from US FCC via Universal Licensing System and Coast Guard Vessel Documentation Center.

Last reported at 2018-Jul-20 17:17 UTC. Time now 2018-Jul-22 16:38 UTC.
Position N 42°07' W 070°38'.

Length 13 m.

Type: Sailing vessel. MMSI: 367685080.

Date/timePositionNaut miles runAvg speedWind from/ knotsBaromVisibWave heightAir tempDewpointWater temp
2018-Jul-20 17:17N 42°07' W 070°38'2 7.3
2018-Jul-20 17:00N 42°08' W 070°40'3 6.8
2018-Jul-20 16:29N 42°12' W 070°42'3 6.8
2018-Jul-20 16:00N 42°14' W 070°44'3 6.8
2018-Jul-20 15:30N 42°17' W 070°47'4 7.2
2018-Jul-20 14:59N 42°19' W 070°51'4 7.7
2018-Jul-20 14:30N 42°19' W 070°56'3 5.7
2018-Jul-20 14:00N 42°20' W 070°60'4 7.0
2018-Jul-20 13:30N 42°22' W 071°03'  
Track history (hours):
 
Tides and Currents Weather Stations Pressure Air Temp Water Temp Dewpoint Dewpoint Depression Visibility Wind Speed Wind Dir Waves Ship Positions

Enjoy

Owner: Preuss, Don, Annapolis, MD. More information available from US FCC via Universal Licensing System and Coast Guard Vessel Documentation Center.

Last reported at 2018-Jul-20 17:17 UTC. Time now 2018-Jul-22 16:38 UTC.
Position N 42°07' W 070°38'.

Length 13 m.

Type: Sailing vessel. MMSI: 367685080.

Date/timePositionNaut miles runAvg speedWind from/ knotsBaromVisibWave heightAir tempDewpointWater temp
2018-Jul-20 17:17N 42°07' W 070°38'2 7.3
2018-Jul-20 17:00N 42°08' W 070°40'3 6.8
2018-Jul-20 16:29N 42°12' W 070°42'3 6.8
2018-Jul-20 16:00N 42°14' W 070°44'3 6.8
2018-Jul-20 15:30N 42°17' W 070°47'4 7.2
2018-Jul-20 14:59N 42°19' W 070°51'4 7.7
2018-Jul-20 14:30N 42°19' W 070°56'3 5.7
2018-Jul-20 14:00N 42°20' W 070°60'4 7.0
2018-Jul-20 13:30N 42°22' W 071°03'  

Dump ship's entire track history